Nestor — V2FB3 — position and weather

sailwx.info

Track history (hours):
 
Tides and Currents Weather Stations Pressure Air Temp Water Temp Dewpoint Dewpoint Depression Visibility Wind Speed Wind Dir Waves Ship Positions

Nestor

Last reported at 2017-Aug-20 23:00 UTC. Time now 2017-Aug-20 23:12 UTC.
Position N 53°24' W 003°03'.

Length 88 m; draft 5.6 m.

Type: Cargo ship. MMSI: 305620000.

Date/timePositionNaut miles runAvg speedWind from/ knotsBaromVisibWave heightAir tempDewpointWater temp
2017-Aug-20 23:00N 53°24' W 003°03'0 0.5
2017-Aug-20 22:30N 53°24' W 003°02'1 1.2
2017-Aug-20 22:00N 53°24' W 003°01'0 0.0
2017-Aug-20 21:30N 53°24' W 003°01'0 0.4
2017-Aug-20 21:00N 53°24' W 003°01'2 3.3
2017-Aug-20 20:31N 53°26' W 003°01'510.3
2017-Aug-20 20:00N 53°30' W 003°06'4 8.8
2017-Aug-20 19:30N 53°31' W 003°13'4 8.4
2017-Aug-20 19:00N 53°31' W 003°20'3 6.0
2017-Aug-20 18:30N 53°29' W 003°24'1 1.3
2017-Aug-20 17:55N 53°28' W 003°24'0 0.1
2017-Aug-20 17:28N 53°28' W 003°24'0 0.1
2017-Aug-20 16:58N 53°28' W 003°24'0 0.1
2017-Aug-20 16:25N 53°28' W 003°24'0 0.1
2017-Aug-20 15:58N 53°28' W 003°24'0 0.0
2017-Aug-20 15:19N 53°28' W 003°24'0 0.0
2017-Aug-20 14:55N 53°28' W 003°24'0 0.0
2017-Aug-20 14:25N 53°28' W 003°24'0 0.0
2017-Aug-20 13:58N 53°28' W 003°24'0 0.0
2017-Aug-20 13:28N 53°28' W 003°24'0 0.0
2017-Aug-20 12:58N 53°28' W 003°24'0 0.0
2017-Aug-20 12:28N 53°28' W 003°24'0 0.0
2017-Aug-20 11:55N 53°28' W 003°24'0 0.0
2017-Aug-20 11:25N 53°28' W 003°24'0 0.1
2017-Aug-20 10:55N 53°28' W 003°24'0 0.2
2017-Aug-20 10:25N 53°28' W 003°24'0 0.1
2017-Aug-20 09:55N 53°28' W 003°24'0 0.0
2017-Aug-20 09:28N 53°28' W 003°24'0 0.1
2017-Aug-20 09:00N 53°28' W 003°24'2 4.4
2017-Aug-20 08:30N 53°30' W 003°27'4 7.3
2017-Aug-20 08:00N 53°31' W 003°33'5 9.7
2017-Aug-20 07:30N 53°30' W 003°41'510.3
2017-Aug-20 06:59N 53°30' W 003°50'189 7.2
2017-Aug-19 04:55N 50°37' W 005°52'10 6.6
2017-Aug-19 03:27N 50°28' W 005°52'4 6.8
2017-Aug-19 02:47N 50°23' W 005°52'  
2017-Aug-12 19:18N 41°11' W 008°41'  
Track history (hours):
 
Tides and Currents Weather Stations Pressure Air Temp Water Temp Dewpoint Dewpoint Depression Visibility Wind Speed Wind Dir Waves Ship Positions

Nestor

Last reported at 2017-Aug-20 23:00 UTC. Time now 2017-Aug-20 23:12 UTC.
Position N 53°24' W 003°03'.

Length 88 m; draft 5.6 m.

Type: Cargo ship. MMSI: 305620000.

Date/timePositionNaut miles runAvg speedWind from/ knotsBaromVisibWave heightAir tempDewpointWater temp
2017-Aug-20 23:00N 53°24' W 003°03'0 0.5
2017-Aug-20 22:30N 53°24' W 003°02'1 1.2
2017-Aug-20 22:00N 53°24' W 003°01'0 0.0
2017-Aug-20 21:30N 53°24' W 003°01'0 0.4
2017-Aug-20 21:00N 53°24' W 003°01'2 3.3
2017-Aug-20 20:31N 53°26' W 003°01'510.3
2017-Aug-20 20:00N 53°30' W 003°06'4 8.8
2017-Aug-20 19:30N 53°31' W 003°13'4 8.4
2017-Aug-20 19:00N 53°31' W 003°20'3 6.0
2017-Aug-20 18:30N 53°29' W 003°24'1 1.3
2017-Aug-20 17:55N 53°28' W 003°24'0 0.1
2017-Aug-20 17:28N 53°28' W 003°24'0 0.1
2017-Aug-20 16:58N 53°28' W 003°24'0 0.1
2017-Aug-20 16:25N 53°28' W 003°24'0 0.1
2017-Aug-20 15:58N 53°28' W 003°24'0 0.0
2017-Aug-20 15:19N 53°28' W 003°24'0 0.0
2017-Aug-20 14:55N 53°28' W 003°24'0 0.0
2017-Aug-20 14:25N 53°28' W 003°24'0 0.0
2017-Aug-20 13:58N 53°28' W 003°24'0 0.0
2017-Aug-20 13:28N 53°28' W 003°24'0 0.0
2017-Aug-20 12:58N 53°28' W 003°24'0 0.0
2017-Aug-20 12:28N 53°28' W 003°24'0 0.0
2017-Aug-20 11:55N 53°28' W 003°24'0 0.0
2017-Aug-20 11:25N 53°28' W 003°24'0 0.1
2017-Aug-20 10:55N 53°28' W 003°24'0 0.2
2017-Aug-20 10:25N 53°28' W 003°24'0 0.1
2017-Aug-20 09:55N 53°28' W 003°24'0 0.0
2017-Aug-20 09:28N 53°28' W 003°24'0 0.1
2017-Aug-20 09:00N 53°28' W 003°24'2 4.4
2017-Aug-20 08:30N 53°30' W 003°27'4 7.3
2017-Aug-20 08:00N 53°31' W 003°33'5 9.7
2017-Aug-20 07:30N 53°30' W 003°41'510.3
2017-Aug-20 06:59N 53°30' W 003°50'189 7.2
2017-Aug-19 04:55N 50°37' W 005°52'10 6.6
2017-Aug-19 03:27N 50°28' W 005°52'4 6.8
2017-Aug-19 02:47N 50°23' W 005°52'  
2017-Aug-12 19:18N 41°11' W 008°41'  

Dump ship's entire track history